sensor_id;sensor_type;location;lat;lon;timestamp;P1;durP1;ratioP1;P2;durP2;ratioP2
55292;SDS011;41157;53.560;10.098;2022-08-25T00:01:53;6.68;;;3.55;;
55292;SDS011;41157;53.560;10.098;2022-08-25T00:04:19;4.95;;;3.30;;
55292;SDS011;41157;53.560;10.098;2022-08-25T00:06:46;5.07;;;3.10;;
55292;SDS011;41157;53.560;10.098;2022-08-25T00:09:13;5.60;;;3.50;;
55292;SDS011;41157;53.560;10.098;2022-08-25T00:11:39;4.72;;;3.25;;
55292;SDS011;41157;53.560;10.098;2022-08-25T00:14:07;10.43;;;4.00;;
55292;SDS011;41157;53.560;10.098;2022-08-25T00:16:34;8.32;;;3.45;;
55292;SDS011;41157;53.560;10.098;2022-08-25T00:19:01;9.02;;;3.55;;
55292;SDS011;41157;53.560;10.098;2022-08-25T00:21:27;5.25;;;3.50;;
55292;SDS011;41157;53.560;10.098;2022-08-25T00:23:55;6.95;;;3.40;;
55292;SDS011;41157;53.560;10.098;2022-08-25T00:26:21;6.30;;;3.33;;
55292;SDS011;41157;53.560;10.098;2022-08-25T00:28:47;6.75;;;3.35;;
55292;SDS011;41157;53.560;10.098;2022-08-25T00:31:14;5.32;;;3.47;;
55292;SDS011;41157;53.560;10.098;2022-08-25T00:33:41;9.85;;;3.85;;
55292;SDS011;41157;53.560;10.098;2022-08-25T00:36:07;8.75;;;3.88;;
55292;SDS011;41157;53.560;10.098;2022-08-25T00:38:36;5.38;;;3.67;;
55292;SDS011;41157;53.560;10.098;2022-08-25T00:41:02;6.30;;;3.58;;
55292;SDS011;41157;53.560;10.098;2022-08-25T00:43:33;7.35;;;3.50;;
55292;SDS011;41157;53.560;10.098;2022-08-25T00:45:59;5.30;;;3.15;;
55292;SDS011;41157;53.560;10.098;2022-08-25T00:48:26;7.82;;;3.65;;
55292;SDS011;41157;53.560;10.098;2022-08-25T00:50:53;4.65;;;3.25;;
55292;SDS011;41157;53.560;10.098;2022-08-25T00:53:19;5.30;;;3.83;;
55292;SDS011;41157;53.560;10.098;2022-08-25T00:55:45;5.35;;;3.60;;
55292;SDS011;41157;53.560;10.098;2022-08-25T00:58:13;6.72;;;3.70;;
55292;SDS011;41157;53.560;10.098;2022-08-25T01:00:42;8.48;;;4.15;;
55292;SDS011;41157;53.560;10.098;2022-08-25T01:03:09;7.68;;;3.40;;
55292;SDS011;41157;53.560;10.098;2022-08-25T01:05:35;10.13;;;3.67;;
55292;SDS011;41157;53.560;10.098;2022-08-25T01:08:02;5.88;;;3.78;;
55292;SDS011;41157;53.560;10.098;2022-08-25T01:10:30;7.32;;;3.40;;
55292;SDS011;41157;53.560;10.098;2022-08-25T01:12:59;6.53;;;3.78;;
55292;SDS011;41157;53.560;10.098;2022-08-25T01:15:25;5.70;;;4.03;;
55292;SDS011;41157;53.560;10.098;2022-08-25T01:17:53;5.22;;;3.60;;
55292;SDS011;41157;53.560;10.098;2022-08-25T01:20:21;4.60;;;3.58;;
55292;SDS011;41157;53.560;10.098;2022-08-25T01:22:48;5.32;;;3.45;;
55292;SDS011;41157;53.560;10.098;2022-08-25T01:25:19;6.05;;;3.30;;
55292;SDS011;41157;53.560;10.098;2022-08-25T01:27:47;4.50;;;3.38;;
55292;SDS011;41157;53.560;10.098;2022-08-25T01:30:13;5.28;;;3.75;;
55292;SDS011;41157;53.560;10.098;2022-08-25T01:32:39;6.03;;;3.72;;
55292;SDS011;41157;53.560;10.098;2022-08-25T01:35:05;7.00;;;3.78;;
55292;SDS011;41157;53.560;10.098;2022-08-25T01:37:32;5.53;;;3.63;;
55292;SDS011;41157;53.560;10.098;2022-08-25T01:39:58;5.43;;;3.20;;
55292;SDS011;41157;53.560;10.098;2022-08-25T01:42:32;7.63;;;3.90;;
55292;SDS011;41157;53.560;10.098;2022-08-25T01:45:02;8.32;;;3.97;;
55292;SDS011;41157;53.560;10.098;2022-08-25T01:47:29;7.68;;;3.85;;
55292;SDS011;41157;53.560;10.098;2022-08-25T01:49:55;7.53;;;4.03;;
55292;SDS011;41157;53.560;10.098;2022-08-25T01:52:28;9.38;;;3.58;;
55292;SDS011;41157;53.560;10.098;2022-08-25T01:54:54;7.68;;;3.95;;
55292;SDS011;41157;53.560;10.098;2022-08-25T01:57:20;5.43;;;3.92;;
55292;SDS011;41157;53.560;10.098;2022-08-25T01:59:46;8.95;;;3.78;;
55292;SDS011;41157;53.560;10.098;2022-08-25T02:02:12;10.82;;;4.00;;
55292;SDS011;41157;53.560;10.098;2022-08-25T02:04:38;6.70;;;3.97;;
55292;SDS011;41157;53.560;10.098;2022-08-25T02:07:05;4.57;;;3.65;;
55292;SDS011;41157;53.560;10.098;2022-08-25T02:09:32;7.55;;;3.70;;
55292;SDS011;41157;53.560;10.098;2022-08-25T02:11:58;8.43;;;4.13;;
55292;SDS011;41157;53.560;10.098;2022-08-25T02:14:24;5.10;;;3.78;;
55292;SDS011;41157;53.560;10.098;2022-08-25T02:16:51;6.18;;;3.83;;
55292;SDS011;41157;53.560;10.098;2022-08-25T02:19:18;5.88;;;3.72;;
55292;SDS011;41157;53.560;10.098;2022-08-25T02:21:44;6.30;;;3.80;;
55292;SDS011;41157;53.560;10.098;2022-08-25T02:24:10;6.43;;;3.95;;
55292;SDS011;41157;53.560;10.098;2022-08-25T02:26:36;6.72;;;4.00;;
55292;SDS011;41157;53.560;10.098;2022-08-25T02:29:02;6.03;;;4.03;;
55292;SDS011;41157;53.560;10.098;2022-08-25T02:31:29;11.07;;;4.25;;
55292;SDS011;41157;53.560;10.098;2022-08-25T02:33:55;5.95;;;3.75;;
55292;SDS011;41157;53.560;10.098;2022-08-25T02:36:21;5.78;;;3.88;;
55292;SDS011;41157;53.560;10.098;2022-08-25T02:38:47;4.25;;;3.58;;
55292;SDS011;41157;53.560;10.098;2022-08-25T02:41:15;10.60;;;3.80;;
55292;SDS011;41157;53.560;10.098;2022-08-25T02:43:42;6.35;;;4.28;;
55292;SDS011;41157;53.560;10.098;2022-08-25T02:46:08;6.40;;;4.10;;
55292;SDS011;41157;53.560;10.098;2022-08-25T02:48:35;3.78;;;3.45;;
55292;SDS011;41157;53.560;10.098;2022-08-25T02:51:02;8.38;;;4.05;;
55292;SDS011;41157;53.560;10.098;2022-08-25T02:53:28;8.02;;;4.22;;
55292;SDS011;41157;53.560;10.098;2022-08-25T02:55:54;9.27;;;4.32;;
55292;SDS011;41157;53.560;10.098;2022-08-25T02:58:20;9.68;;;4.10;;
55292;SDS011;41157;53.560;10.098;2022-08-25T03:00:47;5.55;;;3.60;;
55292;SDS011;41157;53.560;10.098;2022-08-25T03:03:13;6.22;;;3.85;;
55292;SDS011;41157;53.560;10.098;2022-08-25T03:05:39;8.07;;;4.45;;
55292;SDS011;41157;53.560;10.098;2022-08-25T03:08:05;6.65;;;4.03;;
55292;SDS011;41157;53.560;10.098;2022-08-25T03:10:31;7.82;;;4.30;;
55292;SDS011;41157;53.560;10.098;2022-08-25T03:12:57;7.63;;;4.47;;
55292;SDS011;41157;53.560;10.098;2022-08-25T03:15:23;9.43;;;3.97;;
55292;SDS011;41157;53.560;10.098;2022-08-25T03:17:51;6.75;;;4.10;;
55292;SDS011;41157;53.560;10.098;2022-08-25T03:20:17;6.78;;;4.10;;
55292;SDS011;41157;53.560;10.098;2022-08-25T03:22:44;9.10;;;4.38;;
55292;SDS011;41157;53.560;10.098;2022-08-25T03:25:10;10.55;;;4.32;;
55292;SDS011;41157;53.560;10.098;2022-08-25T03:27:55;6.03;;;4.15;;
55292;SDS011;41157;53.560;10.098;2022-08-25T03:30:21;8.57;;;4.28;;
55292;SDS011;41157;53.560;10.098;2022-08-25T03:32:47;6.22;;;4.10;;
55292;SDS011;41157;53.560;10.098;2022-08-25T03:35:13;7.40;;;4.57;;
55292;SDS011;41157;53.560;10.098;2022-08-25T03:37:39;5.65;;;3.70;;
55292;SDS011;41157;53.560;10.098;2022-08-25T03:40:06;8.20;;;4.53;;
55292;SDS011;41157;53.560;10.098;2022-08-25T03:42:33;5.40;;;3.95;;
55292;SDS011;41157;53.560;10.098;2022-08-25T03:45:01;8.18;;;5.32;;
55292;SDS011;41157;53.560;10.098;2022-08-25T03:47:27;7.05;;;4.60;;
55292;SDS011;41157;53.560;10.098;2022-08-25T03:49:53;5.63;;;4.18;;
55292;SDS011;41157;53.560;10.098;2022-08-25T03:52:20;7.22;;;4.63;;
55292;SDS011;41157;53.560;10.098;2022-08-25T03:54:46;6.00;;;4.88;;
55292;SDS011;41157;53.560;10.098;2022-08-25T03:57:12;8.75;;;4.70;;
55292;SDS011;41157;53.560;10.098;2022-08-25T03:59:38;5.57;;;4.07;;
55292;SDS011;41157;53.560;10.098;2022-08-25T04:02:05;6.47;;;4.20;;
55292;SDS011;41157;53.560;10.098;2022-08-25T04:04:31;4.85;;;4.13;;
55292;SDS011;41157;53.560;10.098;2022-08-25T04:06:57;9.52;;;4.70;;
55292;SDS011;41157;53.560;10.098;2022-08-25T04:09:23;7.47;;;4.45;;
55292;SDS011;41157;53.560;10.098;2022-08-25T04:11:50;7.50;;;4.55;;
55292;SDS011;41157;53.560;10.098;2022-08-25T04:14:16;9.15;;;4.85;;
55292;SDS011;41157;53.560;10.098;2022-08-25T04:16:42;7.50;;;4.60;;
55292;SDS011;41157;53.560;10.098;2022-08-25T04:19:08;16.38;;;5.55;;
55292;SDS011;41157;53.560;10.098;2022-08-25T04:21:35;9.38;;;4.95;;
55292;SDS011;41157;53.560;10.098;2022-08-25T04:24:03;7.55;;;4.63;;
55292;SDS011;41157;53.560;10.098;2022-08-25T04:26:33;5.75;;;4.90;;
55292;SDS011;41157;53.560;10.098;2022-08-25T04:29:01;9.50;;;4.90;;
55292;SDS011;41157;53.560;10.098;2022-08-25T04:31:28;6.95;;;4.72;;
55292;SDS011;41157;53.560;10.098;2022-08-25T04:33:54;7.38;;;5.30;;
55292;SDS011;41157;53.560;10.098;2022-08-25T04:36:20;10.38;;;5.03;;
55292;SDS011;41157;53.560;10.098;2022-08-25T04:38:47;7.20;;;5.00;;
55292;SDS011;41157;53.560;10.098;2022-08-25T04:41:14;7.82;;;4.78;;
55292;SDS011;41157;53.560;10.098;2022-08-25T04:43:41;9.10;;;4.88;;
55292;SDS011;41157;53.560;10.098;2022-08-25T04:46:15;8.43;;;4.97;;
55292;SDS011;41157;53.560;10.098;2022-08-25T04:48:41;7.95;;;4.97;;
55292;SDS011;41157;53.560;10.098;2022-08-25T04:51:11;7.80;;;4.95;;
55292;SDS011;41157;53.560;10.098;2022-08-25T04:53:38;7.40;;;5.38;;
55292;SDS011;41157;53.560;10.098;2022-08-25T04:56:05;9.77;;;5.07;;
55292;SDS011;41157;53.560;10.098;2022-08-25T04:58:31;5.25;;;4.57;;
55292;SDS011;41157;53.560;10.098;2022-08-25T05:01:08;7.70;;;5.20;;
55292;SDS011;41157;53.560;10.098;2022-08-25T05:03:34;7.25;;;5.30;;
55292;SDS011;41157;53.560;10.098;2022-08-25T05:06:01;9.95;;;5.70;;
55292;SDS011;41157;53.560;10.098;2022-08-25T05:08:27;7.70;;;5.53;;
55292;SDS011;41157;53.560;10.098;2022-08-25T05:10:53;10.55;;;5.28;;
55292;SDS011;41157;53.560;10.098;2022-08-25T05:13:21;12.63;;;6.32;;
55292;SDS011;41157;53.560;10.098;2022-08-25T05:15:51;10.15;;;5.60;;
55292;SDS011;41157;53.560;10.098;2022-08-25T05:18:18;9.40;;;5.75;;
55292;SDS011;41157;53.560;10.098;2022-08-25T05:20:45;10.38;;;6.00;;
55292;SDS011;41157;53.560;10.098;2022-08-25T05:23:11;12.95;;;6.75;;
55292;SDS011;41157;53.560;10.098;2022-08-25T05:25:37;9.10;;;6.60;;
55292;SDS011;41157;53.560;10.098;2022-08-25T05:28:03;12.80;;;6.78;;
55292;SDS011;41157;53.560;10.098;2022-08-25T05:30:29;16.38;;;7.20;;
55292;SDS011;41157;53.560;10.098;2022-08-25T05:32:55;11.10;;;7.75;;
55292;SDS011;41157;53.560;10.098;2022-08-25T05:35:21;14.50;;;7.85;;
55292;SDS011;41157;53.560;10.098;2022-08-25T05:37:47;13.45;;;8.35;;
55292;SDS011;41157;53.560;10.098;2022-08-25T05:40:13;11.75;;;7.78;;
55292;SDS011;41157;53.560;10.098;2022-08-25T05:42:39;9.95;;;7.47;;
55292;SDS011;41157;53.560;10.098;2022-08-25T05:45:06;14.68;;;9.48;;
55292;SDS011;41157;53.560;10.098;2022-08-25T05:47:32;15.65;;;9.30;;
55292;SDS011;41157;53.560;10.098;2022-08-25T05:49:58;11.85;;;9.10;;
55292;SDS011;41157;53.560;10.098;2022-08-25T05:52:25;13.20;;;9.10;;
55292;SDS011;41157;53.560;10.098;2022-08-25T05:54:51;14.00;;;9.50;;
55292;SDS011;41157;53.560;10.098;2022-08-25T05:57:17;12.27;;;9.68;;
55292;SDS011;41157;53.560;10.098;2022-08-25T05:59:43;11.68;;;9.18;;
55292;SDS011;41157;53.560;10.098;2022-08-25T06:02:09;14.13;;;9.82;;
55292;SDS011;41157;53.560;10.098;2022-08-25T06:04:54;16.15;;;9.10;;
55292;SDS011;41157;53.560;10.098;2022-08-25T06:07:22;12.30;;;9.40;;
55292;SDS011;41157;53.560;10.098;2022-08-25T06:09:48;13.68;;;9.43;;
55292;SDS011;41157;53.560;10.098;2022-08-25T06:12:14;14.50;;;10.00;;
55292;SDS011;41157;53.560;10.098;2022-08-25T06:14:40;12.32;;;9.77;;
55292;SDS011;41157;53.560;10.098;2022-08-25T06:17:06;17.42;;;10.38;;
55292;SDS011;41157;53.560;10.098;2022-08-25T06:19:32;16.73;;;10.13;;
55292;SDS011;41157;53.560;10.098;2022-08-25T06:21:58;13.20;;;9.15;;
55292;SDS011;41157;53.560;10.098;2022-08-25T06:24:25;16.95;;;11.00;;
55292;SDS011;41157;53.560;10.098;2022-08-25T06:26:51;14.23;;;11.70;;
55292;SDS011;41157;53.560;10.098;2022-08-25T06:29:18;12.68;;;9.88;;
55292;SDS011;41157;53.560;10.098;2022-08-25T06:31:44;14.52;;;10.10;;
55292;SDS011;41157;53.560;10.098;2022-08-25T06:34:11;15.85;;;9.85;;
55292;SDS011;41157;53.560;10.098;2022-08-25T06:36:38;15.57;;;10.02;;
55292;SDS011;41157;53.560;10.098;2022-08-25T06:39:04;14.45;;;9.98;;
55292;SDS011;41157;53.560;10.098;2022-08-25T06:41:30;25.13;;;11.15;;
55292;SDS011;41157;53.560;10.098;2022-08-25T06:43:56;15.73;;;10.55;;
55292;SDS011;41157;53.560;10.098;2022-08-25T06:46:23;16.08;;;11.00;;
55292;SDS011;41157;53.560;10.098;2022-08-25T06:48:51;13.65;;;11.07;;
55292;SDS011;41157;53.560;10.098;2022-08-25T06:51:18;12.75;;;11.43;;
55292;SDS011;41157;53.560;10.098;2022-08-25T06:53:44;16.70;;;10.30;;
55292;SDS011;41157;53.560;10.098;2022-08-25T06:56:11;16.27;;;10.55;;
55292;SDS011;41157;53.560;10.098;2022-08-25T06:58:38;16.02;;;9.23;;
55292;SDS011;41157;53.560;10.098;2022-08-25T07:03:36;10.18;;;9.18;;
55292;SDS011;41157;53.560;10.098;2022-08-25T07:06:02;14.23;;;9.98;;
55292;SDS011;41157;53.560;10.098;2022-08-25T07:08:29;13.05;;;9.98;;
55292;SDS011;41157;53.560;10.098;2022-08-25T07:10:55;15.15;;;10.23;;
55292;SDS011;41157;53.560;10.098;2022-08-25T07:13:21;11.65;;;9.63;;
55292;SDS011;41157;53.560;10.098;2022-08-25T07:15:47;11.05;;;9.82;;
55292;SDS011;41157;53.560;10.098;2022-08-25T07:18:17;10.85;;;9.50;;
55292;SDS011;41157;53.560;10.098;2022-08-25T07:20:43;9.90;;;8.88;;
55292;SDS011;41157;53.560;10.098;2022-08-25T07:23:09;12.30;;;10.07;;
55292;SDS011;41157;53.560;10.098;2022-08-25T07:25:35;12.38;;;10.52;;
55292;SDS011;41157;53.560;10.098;2022-08-25T07:28:01;12.60;;;11.02;;
55292;SDS011;41157;53.560;10.098;2022-08-25T07:30:28;11.77;;;10.48;;
55292;SDS011;41157;53.560;10.098;2022-08-25T07:32:54;15.57;;;11.57;;
55292;SDS011;41157;53.560;10.098;2022-08-25T07:35:20;16.13;;;10.52;;
55292;SDS011;41157;53.560;10.098;2022-08-25T07:37:49;14.02;;;10.63;;
55292;SDS011;41157;53.560;10.098;2022-08-25T07:40:19;15.90;;;10.32;;
55292;SDS011;41157;53.560;10.098;2022-08-25T07:42:47;12.70;;;9.98;;
55292;SDS011;41157;53.560;10.098;2022-08-25T07:45:13;10.15;;;9.07;;
55292;SDS011;41157;53.560;10.098;2022-08-25T07:47:39;11.70;;;8.90;;
55292;SDS011;41157;53.560;10.098;2022-08-25T07:50:05;13.07;;;9.60;;
55292;SDS011;41157;53.560;10.098;2022-08-25T07:52:33;13.00;;;9.98;;
55292;SDS011;41157;53.560;10.098;2022-08-25T07:54:59;15.52;;;10.50;;
55292;SDS011;41157;53.560;10.098;2022-08-25T07:57:25;10.90;;;9.48;;
55292;SDS011;41157;53.560;10.098;2022-08-25T07:59:53;15.30;;;11.02;;
55292;SDS011;41157;53.560;10.098;2022-08-25T08:02:19;11.18;;;9.98;;
55292;SDS011;41157;53.560;10.098;2022-08-25T08:04:46;11.38;;;9.20;;
55292;SDS011;41157;53.560;10.098;2022-08-25T08:07:14;10.82;;;9.27;;
55292;SDS011;41157;53.560;10.098;2022-08-25T08:09:40;11.85;;;9.23;;
55292;SDS011;41157;53.560;10.098;2022-08-25T08:12:06;20.55;;;15.23;;
55292;SDS011;41157;53.560;10.098;2022-08-25T08:14:33;12.73;;;9.63;;
55292;SDS011;41157;53.560;10.098;2022-08-25T08:16:59;10.50;;;8.68;;
55292;SDS011;41157;53.560;10.098;2022-08-25T08:19:25;14.02;;;9.50;;
55292;SDS011;41157;53.560;10.098;2022-08-25T08:21:51;12.95;;;9.52;;
55292;SDS011;41157;53.560;10.098;2022-08-25T08:24:17;8.75;;;7.82;;
55292;SDS011;41157;53.560;10.098;2022-08-25T08:26:43;10.93;;;8.38;;
55292;SDS011;41157;53.560;10.098;2022-08-25T08:29:09;9.88;;;7.38;;
55292;SDS011;41157;53.560;10.098;2022-08-25T08:31:35;12.70;;;7.75;;
55292;SDS011;41157;53.560;10.098;2022-08-25T08:34:01;12.40;;;8.60;;
55292;SDS011;41157;53.560;10.098;2022-08-25T08:36:27;10.65;;;7.93;;
55292;SDS011;41157;53.560;10.098;2022-08-25T08:38:53;11.25;;;8.82;;
55292;SDS011;41157;53.560;10.098;2022-08-25T08:44:25;9.82;;;8.60;;
55292;SDS011;41157;53.560;10.098;2022-08-25T08:47:04;11.73;;;8.65;;
55292;SDS011;41157;53.560;10.098;2022-08-25T08:49:43;13.38;;;8.70;;
55292;SDS011;41157;53.560;10.098;2022-08-25T08:52:15;11.52;;;8.30;;
55292;SDS011;41157;53.560;10.098;2022-08-25T08:54:41;10.32;;;8.75;;
55292;SDS011;41157;53.560;10.098;2022-08-25T08:57:11;11.48;;;8.98;;
55292;SDS011;41157;53.560;10.098;2022-08-25T08:59:42;9.88;;;7.97;;
55292;SDS011;41157;53.560;10.098;2022-08-25T09:02:12;12.20;;;8.15;;
55292;SDS011;41157;53.560;10.098;2022-08-25T09:04:42;13.13;;;9.23;;
55292;SDS011;41157;53.560;10.098;2022-08-25T09:07:10;18.27;;;8.95;;
55292;SDS011;41157;53.560;10.098;2022-08-25T09:09:39;16.25;;;7.63;;
55292;SDS011;41157;53.560;10.098;2022-08-25T09:22:42;11.07;;;7.50;;
55292;SDS011;41157;53.560;10.098;2022-08-25T09:30:23;9.05;;;8.05;;
55292;SDS011;41157;53.560;10.098;2022-08-25T09:32:50;9.93;;;7.85;;
55292;SDS011;41157;53.560;10.098;2022-08-25T09:35:32;11.40;;;7.32;;
55292;SDS011;41157;53.560;10.098;2022-08-25T09:37:59;8.02;;;7.22;;
55292;SDS011;41157;53.560;10.098;2022-08-25T09:40:26;10.63;;;6.45;;
55292;SDS011;41157;53.560;10.098;2022-08-25T09:42:53;9.27;;;6.35;;
55292;SDS011;41157;53.560;10.098;2022-08-25T09:45:29;7.90;;;6.18;;
55292;SDS011;41157;53.560;10.098;2022-08-25T09:47:56;7.85;;;6.25;;
55292;SDS011;41157;53.560;10.098;2022-08-25T09:50:22;9.45;;;6.05;;
55292;SDS011;41157;53.560;10.098;2022-08-25T09:52:48;13.98;;;6.25;;
55292;SDS011;41157;53.560;10.098;2022-08-25T09:57:53;9.20;;;6.03;;
55292;SDS011;41157;53.560;10.098;2022-08-25T10:00:29;8.30;;;5.38;;
55292;SDS011;41157;53.560;10.098;2022-08-25T10:03:15;7.63;;;6.28;;
55292;SDS011;41157;53.560;10.098;2022-08-25T10:08:12;11.25;;;4.50;;
55292;SDS011;41157;53.560;10.098;2022-08-25T10:10:45;5.60;;;4.53;;
55292;SDS011;41157;53.560;10.098;2022-08-25T10:13:18;7.38;;;5.03;;
55292;SDS011;41157;53.560;10.098;2022-08-25T10:15:45;6.55;;;4.63;;
55292;SDS011;41157;53.560;10.098;2022-08-25T10:18:20;6.75;;;4.18;;
55292;SDS011;41157;53.560;10.098;2022-08-25T10:20:59;6.60;;;4.13;;
55292;SDS011;41157;53.560;10.098;2022-08-25T10:23:25;8.43;;;4.00;;
55292;SDS011;41157;53.560;10.098;2022-08-25T10:25:52;6.55;;;3.40;;
55292;SDS011;41157;53.560;10.098;2022-08-25T10:31:24;5.18;;;3.25;;
55292;SDS011;41157;53.560;10.098;2022-08-25T10:36:21;5.72;;;2.95;;
55292;SDS011;41157;53.560;10.098;2022-08-25T10:41:38;4.68;;;3.20;;
55292;SDS011;41157;53.560;10.098;2022-08-25T10:44:09;4.97;;;2.83;;
55292;SDS011;41157;53.560;10.098;2022-08-25T10:47:03;3.97;;;2.70;;
55292;SDS011;41157;53.560;10.098;2022-08-25T10:49:44;6.50;;;2.90;;
55292;SDS011;41157;53.560;10.098;2022-08-25T10:52:15;4.43;;;2.38;;
55292;SDS011;41157;53.560;10.098;2022-08-25T10:54:52;5.28;;;2.85;;
55292;SDS011;41157;53.560;10.098;2022-08-25T10:57:22;3.92;;;2.53;;
55292;SDS011;41157;53.560;10.098;2022-08-25T11:00:03;5.00;;;2.67;;
55292;SDS011;41157;53.560;10.098;2022-08-25T11:02:41;6.00;;;2.85;;
55292;SDS011;41157;53.560;10.098;2022-08-25T11:05:11;4.78;;;2.60;;
55292;SDS011;41157;53.560;10.098;2022-08-25T11:10:06;6.05;;;2.65;;
55292;SDS011;41157;53.560;10.098;2022-08-25T11:12:41;7.40;;;2.90;;
55292;SDS011;41157;53.560;10.098;2022-08-25T11:15:11;7.25;;;2.67;;
55292;SDS011;41157;53.560;10.098;2022-08-25T11:17:54;4.28;;;2.80;;
55292;SDS011;41157;53.560;10.098;2022-08-25T11:20:22;5.55;;;2.75;;
55292;SDS011;41157;53.560;10.098;2022-08-25T11:22:53;5.32;;;2.60;;
55292;SDS011;41157;53.560;10.098;2022-08-25T11:25:25;4.22;;;2.47;;
55292;SDS011;41157;53.560;10.098;2022-08-25T11:28:02;9.80;;;2.47;;
55292;SDS011;41157;53.560;10.098;2022-08-25T11:30:31;5.82;;;2.67;;
55292;SDS011;41157;53.560;10.098;2022-08-25T11:32:57;6.57;;;2.50;;
55292;SDS011;41157;53.560;10.098;2022-08-25T11:35:28;10.43;;;2.90;;
55292;SDS011;41157;53.560;10.098;2022-08-25T11:38:02;6.28;;;2.40;;
55292;SDS011;41157;53.560;10.098;2022-08-25T11:48:04;3.88;;;2.38;;
55292;SDS011;41157;53.560;10.098;2022-08-25T11:50:34;3.38;;;2.13;;
55292;SDS011;41157;53.560;10.098;2022-08-25T11:53:02;3.90;;;2.30;;
55292;SDS011;41157;53.560;10.098;2022-08-25T11:55:51;4.68;;;2.22;;
55292;SDS011;41157;53.560;10.098;2022-08-25T11:58:36;7.97;;;2.70;;
55292;SDS011;41157;53.560;10.098;2022-08-25T12:01:04;4.47;;;2.40;;
55292;SDS011;41157;53.560;10.098;2022-08-25T12:11:41;5.03;;;2.40;;
55292;SDS011;41157;53.560;10.098;2022-08-25T12:37:30;2.50;;;2.30;;
55292;SDS011;41157;53.560;10.098;2022-08-25T12:39:59;9.10;;;2.80;;
55292;SDS011;41157;53.560;10.098;2022-08-25T12:42:28;10.98;;;3.00;;
55292;SDS011;41157;53.560;10.098;2022-08-25T12:47:33;4.40;;;2.65;;
55292;SDS011;41157;53.560;10.098;2022-08-25T12:52:44;5.47;;;3.08;;
55292;SDS011;41157;53.560;10.098;2022-08-25T12:55:10;3.13;;;2.40;;
55292;SDS011;41157;53.560;10.098;2022-08-25T12:57:42;4.85;;;2.60;;
55292;SDS011;41157;53.560;10.098;2022-08-25T13:00:22;4.90;;;2.20;;
55292;SDS011;41157;53.560;10.098;2022-08-25T13:02:57;4.25;;;2.50;;
55292;SDS011;41157;53.560;10.098;2022-08-25T13:08:22;3.42;;;2.53;;
55292;SDS011;41157;53.560;10.098;2022-08-25T13:13:46;7.00;;;2.65;;
55292;SDS011;41157;53.560;10.098;2022-08-25T13:16:17;5.82;;;3.17;;
55292;SDS011;41157;53.560;10.098;2022-08-25T13:18:44;7.18;;;2.70;;
55292;SDS011;41157;53.560;10.098;2022-08-25T13:21:14;5.82;;;2.30;;
55292;SDS011;41157;53.560;10.098;2022-08-25T13:23:42;5.63;;;2.55;;
55292;SDS011;41157;53.560;10.098;2022-08-25T13:26:11;4.70;;;2.45;;
55292;SDS011;41157;53.560;10.098;2022-08-25T13:28:39;10.00;;;3.10;;
55292;SDS011;41157;53.560;10.098;2022-08-25T13:31:07;8.15;;;2.45;;
55292;SDS011;41157;53.560;10.098;2022-08-25T13:33:33;5.90;;;2.58;;
55292;SDS011;41157;53.560;10.098;2022-08-25T13:36:02;3.00;;;2.45;;
55292;SDS011;41157;53.560;10.098;2022-08-25T13:38:48;4.38;;;2.53;;
55292;SDS011;41157;53.560;10.098;2022-08-25T13:41:18;2.90;;;2.50;;
55292;SDS011;41157;53.560;10.098;2022-08-25T13:43:45;4.38;;;2.70;;
55292;SDS011;41157;53.560;10.098;2022-08-25T13:46:11;7.25;;;2.63;;
55292;SDS011;41157;53.560;10.098;2022-08-25T13:48:38;7.03;;;2.85;;
55292;SDS011;41157;53.560;10.098;2022-08-25T13:51:09;3.85;;;2.53;;
55292;SDS011;41157;53.560;10.098;2022-08-25T13:53:46;9.90;;;3.22;;
55292;SDS011;41157;53.560;10.098;2022-08-25T13:56:12;10.48;;;2.80;;
55292;SDS011;41157;53.560;10.098;2022-08-25T13:58:47;7.07;;;3.00;;
55292;SDS011;41157;53.560;10.098;2022-08-25T14:01:18;6.28;;;3.00;;
55292;SDS011;41157;53.560;10.098;2022-08-25T14:03:46;4.97;;;2.80;;
55292;SDS011;41157;53.560;10.098;2022-08-25T14:09:02;5.40;;;2.70;;
55292;SDS011;41157;53.560;10.098;2022-08-25T14:11:45;4.20;;;2.83;;
55292;SDS011;41157;53.560;10.098;2022-08-25T14:16:57;7.05;;;2.60;;
55292;SDS011;41157;53.560;10.098;2022-08-25T14:19:24;3.42;;;2.53;;
55292;SDS011;41157;53.560;10.098;2022-08-25T14:21:51;6.85;;;2.90;;
55292;SDS011;41157;53.560;10.098;2022-08-25T14:24:17;3.85;;;2.63;;
55292;SDS011;41157;53.560;10.098;2022-08-25T14:26:44;4.82;;;2.97;;
55292;SDS011;41157;53.560;10.098;2022-08-25T14:29:11;8.70;;;2.80;;
55292;SDS011;41157;53.560;10.098;2022-08-25T14:31:39;6.25;;;2.65;;
55292;SDS011;41157;53.560;10.098;2022-08-25T14:34:19;2.70;;;2.33;;
55292;SDS011;41157;53.560;10.098;2022-08-25T14:36:46;4.22;;;2.97;;
55292;SDS011;41157;53.560;10.098;2022-08-25T14:39:12;3.63;;;3.15;;
55292;SDS011;41157;53.560;10.098;2022-08-25T14:41:39;16.83;;;3.75;;
55292;SDS011;41157;53.560;10.098;2022-08-25T14:44:06;5.45;;;2.75;;
55292;SDS011;41157;53.560;10.098;2022-08-25T14:46:33;5.70;;;2.58;;
55292;SDS011;41157;53.560;10.098;2022-08-25T14:49:01;4.88;;;2.97;;
55292;SDS011;41157;53.560;10.098;2022-08-25T14:51:28;3.00;;;2.67;;
55292;SDS011;41157;53.560;10.098;2022-08-25T14:53:57;4.75;;;2.83;;
55292;SDS011;41157;53.560;10.098;2022-08-25T14:56:24;5.78;;;2.97;;
55292;SDS011;41157;53.560;10.098;2022-08-25T14:58:50;4.65;;;2.88;;
55292;SDS011;41157;53.560;10.098;2022-08-25T15:01:16;9.90;;;3.47;;
55292;SDS011;41157;53.560;10.098;2022-08-25T15:03:44;8.95;;;2.85;;
55292;SDS011;41157;53.560;10.098;2022-08-25T15:06:12;10.18;;;3.72;;
55292;SDS011;41157;53.560;10.098;2022-08-25T15:08:38;9.63;;;3.08;;
55292;SDS011;41157;53.560;10.098;2022-08-25T15:11:23;6.45;;;3.03;;
55292;SDS011;41157;53.560;10.098;2022-08-25T15:13:49;3.25;;;2.72;;
55292;SDS011;41157;53.560;10.098;2022-08-25T15:16:29;6.18;;;2.88;;
55292;SDS011;41157;53.560;10.098;2022-08-25T15:18:55;12.48;;;6.55;;
55292;SDS011;41157;53.560;10.098;2022-08-25T15:21:21;6.78;;;3.25;;
55292;SDS011;41157;53.560;10.098;2022-08-25T15:23:47;4.68;;;2.90;;
55292;SDS011;41157;53.560;10.098;2022-08-25T15:26:13;8.60;;;3.22;;
55292;SDS011;41157;53.560;10.098;2022-08-25T15:28:41;6.30;;;3.20;;
55292;SDS011;41157;53.560;10.098;2022-08-25T15:31:08;8.60;;;3.10;;
55292;SDS011;41157;53.560;10.098;2022-08-25T15:33:34;4.75;;;2.72;;
55292;SDS011;41157;53.560;10.098;2022-08-25T15:36:00;8.30;;;3.25;;
55292;SDS011;41157;53.560;10.098;2022-08-25T15:38:26;6.25;;;2.80;;
55292;SDS011;41157;53.560;10.098;2022-08-25T15:40:52;7.55;;;3.33;;
55292;SDS011;41157;53.560;10.098;2022-08-25T15:43:18;7.35;;;2.97;;
55292;SDS011;41157;53.560;10.098;2022-08-25T15:45:44;6.82;;;2.97;;
55292;SDS011;41157;53.560;10.098;2022-08-25T15:48:10;5.55;;;2.95;;
55292;SDS011;41157;53.560;10.098;2022-08-25T15:50:36;8.48;;;2.80;;
55292;SDS011;41157;53.560;10.098;2022-08-25T15:53:02;6.78;;;2.85;;
55292;SDS011;41157;53.560;10.098;2022-08-25T15:55:28;8.40;;;3.00;;
55292;SDS011;41157;53.560;10.098;2022-08-25T15:57:54;14.85;;;5.68;;
55292;SDS011;41157;53.560;10.098;2022-08-25T16:00:20;4.68;;;3.20;;
55292;SDS011;41157;53.560;10.098;2022-08-25T16:02:46;6.10;;;2.97;;
55292;SDS011;41157;53.560;10.098;2022-08-25T16:05:12;12.32;;;3.25;;
55292;SDS011;41157;53.560;10.098;2022-08-25T16:07:39;6.03;;;3.22;;